Карточка аэропорта URMM

Внимание!
Информация на этой странице в стадии наполнения.
Если вы не увидели какой-то информации, или заметили неточность - пожалуйста сообщите нам!
Спасибо!
Команда RU-STAFF
Название аэропортаМинеральные Воды
Название аэропорта (англ.)Mineralnyye Vody
Превышение1047 ft. (319.1 m.)
Координаты44°13.608', 43°4.9799999999999'
Высота перехода7000 ft
Эшелон переходаFL80 (QNH >= 1013); FL90 (QNH 977-1012); FL100 (QNH < 977)
Коды ответчика1050-1057
Зона ОрВДРостов-на-Дону РПИ (URRV)
Данные METARURMM 281830Z 10007MPS 3400 -DZ BR OVC003 03/03 Q1027 R12/290150 NOSIG RMK QBB090 MT OBSC OBST OBSC QFE741/0989
Проноз погоды (TAF)URMM 281700Z 2818/2918 09006G13MPS 3100 BR OVC004 TX05/2912Z TN01/2902Z TEMPO 2818/2908 0300 -DZ FG OVC002 BECMG 2908/2910 6000 NSW OVC008 TEMPO 2910/2918 11009G18MPS 3100 -DZ BR BKN006
NOTAMshow/hide NOTAM
AWOS   TABLE

Информация о ВПП

ВПП Длина ВПП (м.) Покрытие Курс ВПП Частота ILS
123900Бетон115111.7
303900Бетон295109.3

Диспетчерские позиции

Позывной Наименование органа УВД Частота
URMM_APPМинводы-Подход119.3
URMM_R_APPМинводы-Круг120.7
URMM_GNDМинводы-Руление121.9
URMM_TWRМинводы-Старт128.0



Спутниковое изображение